Time,TemperatureF,DewpointF,PressureIn,WindDirection,WindDirectionDegrees,WindSpeedMPH,WindSpeedGustMPH,Humidity,HourlyPrecipIn,Conditions,Clouds,dailyrainin,SoftwareType,DateUTC
2013-09-23 00:01:00,47.0,45.4,29.83,East,79,1.0,1.0,94,0.00,,,0.00,Wunderground v.1.15,2013-09-23 04:01:00,
2013-09-23 00:02:00,47.1,45.5,29.83,East,79,0.0,1.0,94,0.00,,,0.00,Wunderground v.1.15,2013-09-23 04:02:00,
2013-09-23 00:03:00,47.0,45.4,29.83,East,79,0.0,1.0,94,0.00,,,0.00,Wunderground v.1.15,2013-09-23 04:03:00,
2013-09-23 00:04:00,47.1,45.5,29.83,East,79,0.0,1.0,94,0.00,,,0.00,Wunderground v.1.15,2013-09-23 04:04:00,
2013-09-23 00:10:00,47.1,45.5,29.83,East,82,0.0,1.0,94,0.00,,,0.00,Wunderground v.1.15,2013-09-23 04:10:00,
2013-09-23 00:14:00,47.2,45.6,29.83,NW,326,0.0,2.0,94,0.00,,,0.00,Wunderground v.1.15,2013-09-23 04:14:00,
2013-09-23 00:20:00,47.4,45.8,29.83,NNW,347,0.0,0.0,94,0.00,,,0.00,Wunderground v.1.15,2013-09-23 04:20:00,
2013-09-23 00:25:00,47.4,45.5,29.84,North,360,0.0,1.0,93,0.00,,,0.00,Wunderground v.1.15,2013-09-23 04:25:00,
2013-09-23 00:31:00,47.6,46.0,29.84,East,82,1.0,2.0,94,0.00,,,0.00,Wunderground v.1.15,2013-09-23 04:31:00,
2013-09-23 00:37:00,47.8,45.9,29.84,NE,40,1.0,2.0,93,0.00,,,0.00,Wunderground v.1.15,2013-09-23 04:37:00,
2013-09-23 00:42:00,48.0,45.8,29.84,NW,319,1.0,2.0,92,0.00,,,0.00,Wunderground v.1.15,2013-09-23 04:42:00,
2013-09-23 00:48:00,48.1,45.9,29.84,ENE,71,1.0,2.0,92,0.00,,,0.00,Wunderground v.1.15,2013-09-23 04:48:00,
2013-09-23 00:54:00,48.3,46.1,29.84,North,6,1.0,2.0,92,0.00,,,0.00,Wunderground v.1.15,2013-09-23 04:54:00,
2013-09-23 01:00:00,48.1,45.6,29.84,NNE,23,0.0,2.0,91,0.00,,,0.00,Wunderground v.1.15,2013-09-23 05:00:00,
2013-09-23 01:06:00,48.0,45.8,29.84,NE,49,0.0,2.0,92,0.00,,,0.00,Wunderground v.1.15,2013-09-23 05:06:00,
2013-09-23 01:12:00,47.8,45.3,29.84,WSW,253,0.0,2.0,91,0.00,,,0.00,Wunderground v.1.15,2013-09-23 05:12:00,
2013-09-23 01:18:00,47.8,45.6,29.85,NNW,338,0.0,2.0,92,0.00,,,0.00,Wunderground v.1.15,2013-09-23 05:18:00,
2013-09-23 01:24:00,47.6,45.4,29.85,NNW,335,0.0,2.0,92,0.00,,,0.00,Wunderground v.1.15,2013-09-23 05:24:00,
2013-09-23 01:30:00,47.8,45.6,29.85,North,353,1.0,1.0,92,0.00,,,0.00,Wunderground v.1.15,2013-09-23 05:30:00,
2013-09-23 01:36:00,47.5,45.0,29.85,North,1,1.0,2.0,91,0.00,,,0.00,Wunderground v.1.15,2013-09-23 05:36:00,
2013-09-23 01:42:00,47.3,45.1,29.85,NE,41,0.0,2.0,92,0.00,,,0.00,Wunderground v.1.15,2013-09-23 05:42:00,
2013-09-23 01:48:00,46.9,44.7,29.85,NE,39,0.0,2.0,92,0.00,,,0.00,Wunderground v.1.15,2013-09-23 05:48:00,
2013-09-23 01:54:00,46.8,44.9,29.85,SSE,154,0.0,2.0,93,0.00,,,0.00,Wunderground v.1.15,2013-09-23 05:54:00,
2013-09-23 02:00:00,46.8,44.9,29.85,NNE,32,0.0,2.0,93,0.00,,,0.00,Wunderground v.1.15,2013-09-23 06:00:00,
2013-09-23 02:05:00,47.0,45.1,29.85,NNE,22,0.0,2.0,93,0.00,,,0.00,Wunderground v.1.15,2013-09-23 06:05:00,
2013-09-23 02:11:00,47.0,45.1,29.85,NNE,12,0.0,2.0,93,0.00,,,0.00,Wunderground v.1.15,2013-09-23 06:11:00,
2013-09-23 02:17:00,47.3,45.4,29.85,NE,43,0.0,2.0,93,0.00,,,0.00,Wunderground v.1.15,2013-09-23 06:17:00,
2013-09-23 02:22:00,47.5,45.3,29.84,NW,318,1.0,8.0,92,0.00,,,0.00,Wunderground v.1.15,2013-09-23 06:22:00,
2013-09-23 02:28:00,47.8,45.6,29.85,ENE,60,2.0,8.0,92,0.00,,,0.00,Wunderground v.1.15,2013-09-23 06:28:00,
2013-09-23 02:34:00,47.9,45.4,29.85,NNE,12,1.0,5.0,91,0.00,,,0.00,Wunderground v.1.15,2013-09-23 06:34:00,
2013-09-23 02:40:00,47.9,45.4,29.85,ENE,70,1.0,2.0,91,0.00,,,0.00,Wunderground v.1.15,2013-09-23 06:40:00,
2013-09-23 02:46:00,47.9,45.4,29.85,NNW,329,2.0,2.0,91,0.00,,,0.00,Wunderground v.1.15,2013-09-23 06:46:00,
2013-09-23 02:52:00,47.8,45.3,29.86,WNW,294,1.0,2.0,91,0.00,,,0.00,Wunderground v.1.15,2013-09-23 06:52:00,
2013-09-23 02:58:00,47.5,45.0,29.86,North,4,1.0,3.0,91,0.00,,,0.00,Wunderground v.1.15,2013-09-23 06:58:00,
2013-09-23 03:03:00,47.4,44.9,29.86,NNE,13,1.0,2.0,91,0.00,,,0.00,Wunderground v.1.15,2013-09-23 07:03:00,
2013-09-23 03:09:00,47.2,45.0,29.86,NNE,20,1.0,3.0,92,0.00,,,0.00,Wunderground v.1.15,2013-09-23 07:09:00,
2013-09-23 03:14:00,47.1,44.9,29.86,ENE,71,1.0,2.0,92,0.00,,,0.00,Wunderground v.1.15,2013-09-23 07:14:00,
2013-09-23 03:20:00,47.0,44.8,29.86,ENE,70,1.0,1.0,92,0.00,,,0.00,Wunderground v.1.15,2013-09-23 07:20:00,
2013-09-23 03:25:00,46.5,44.3,29.86,East,79,0.0,2.0,92,0.00,,,0.00,Wunderground v.1.15,2013-09-23 07:25:00,
2013-09-23 03:31:00,46.0,43.8,29.86,East,79,0.0,2.0,92,0.00,,,0.00,Wunderground v.1.15,2013-09-23 07:31:00,
2013-09-23 03:37:00,45.7,43.8,29.86,East,79,0.0,2.0,93,0.00,,,0.00,Wunderground v.1.15,2013-09-23 07:37:00,
2013-09-23 03:43:00,45.5,43.9,29.86,East,79,0.0,2.0,94,0.00,,,0.00,Wunderground v.1.15,2013-09-23 07:43:00,
2013-09-23 03:49:00,45.2,43.6,29.86,East,80,0.0,2.0,94,0.00,,,0.00,Wunderground v.1.15,2013-09-23 07:49:00,
2013-09-23 03:54:00,45.0,43.4,29.87,East,79,0.0,2.0,94,0.00,,,0.00,Wunderground v.1.15,2013-09-23 07:54:00,
2013-09-23 04:00:00,44.6,43.0,29.87,East,81,0.0,2.0,94,0.00,,,0.00,Wunderground v.1.15,2013-09-23 08:00:00,
2013-09-23 04:06:00,44.3,42.7,29.87,East,80,0.0,2.0,94,0.00,,,0.00,Wunderground v.1.15,2013-09-23 08:06:00,
2013-09-23 04:12:00,44.0,42.7,29.87,East,80,0.0,2.0,95,0.00,,,0.00,Wunderground v.1.15,2013-09-23 08:12:00,
2013-09-23 04:18:00,43.8,42.5,29.88,East,80,0.0,2.0,95,0.00,,,0.00,Wunderground v.1.15,2013-09-23 08:18:00,
2013-09-23 04:23:00,43.5,42.2,29.88,East,80,0.0,2.0,95,0.00,,,0.00,Wunderground v.1.15,2013-09-23 08:23:00,
2013-09-23 04:29:00,43.0,41.7,29.88,East,79,0.0,2.0,95,0.00,,,0.00,Wunderground v.1.15,2013-09-23 08:29:00,
2013-09-23 04:35:00,42.7,41.4,29.88,East,81,0.0,2.0,95,0.00,,,0.00,Wunderground v.1.15,2013-09-23 08:35:00,
2013-09-23 04:41:00,42.4,41.1,29.88,East,81,0.0,2.0,95,0.00,,,0.00,Wunderground v.1.15,2013-09-23 08:41:00,
2013-09-23 04:47:00,42.1,41.0,29.88,East,81,0.0,2.0,96,0.00,,,0.00,Wunderground v.1.15,2013-09-23 08:47:00,
2013-09-23 04:54:00,41.9,40.8,29.88,East,80,0.0,2.0,96,0.00,,,0.00,Wunderground v.1.15,2013-09-23 08:54:00,
2013-09-23 05:00:00,41.6,40.5,29.88,East,81,0.0,2.0,96,0.00,,,0.00,Wunderground v.1.15,2013-09-23 09:00:00,
2013-09-23 05:06:00,41.5,40.4,29.89,ENE,68,0.0,2.0,96,0.00,,,0.00,Wunderground v.1.15,2013-09-23 09:06:00,
2013-09-23 05:11:00,41.7,40.6,29.89,ESE,113,0.0,2.0,96,0.00,,,0.00,Wunderground v.1.15,2013-09-23 09:11:00,
2013-09-23 05:16:00,42.3,41.5,29.89,NE,47,0.0,4.0,97,0.00,,,0.00,Wunderground v.1.15,2013-09-23 09:16:00,
2013-09-23 05:21:00,43.1,42.3,29.88,ENE,57,1.0,2.0,97,0.00,,,0.00,Wunderground v.1.15,2013-09-23 09:21:00,
2013-09-23 05:27:00,43.8,43.0,29.89,ENE,66,1.0,2.0,97,0.00,,,0.00,Wunderground v.1.15,2013-09-23 09:27:00,
2013-09-23 05:33:00,43.7,42.6,29.89,WNW,303,0.0,2.0,96,0.00,,,0.00,Wunderground v.1.15,2013-09-23 09:33:00,
2013-09-23 05:39:00,43.7,42.6,29.89,NNE,32,0.0,3.0,96,0.00,,,0.00,Wunderground v.1.15,2013-09-23 09:39:00,
2013-09-23 05:45:00,43.9,42.8,29.89,WNW,297,0.0,2.0,96,0.00,,,0.00,Wunderground v.1.15,2013-09-23 09:45:00,
2013-09-23 05:52:00,44.1,43.0,29.89,NE,46,1.0,2.0,96,0.00,,,0.00,Wunderground v.1.15,2013-09-23 09:52:00,
2013-09-23 05:58:00,44.1,42.8,29.90,NNW,341,1.0,2.0,95,0.00,,,0.00,Wunderground v.1.15,2013-09-23 09:58:00,
2013-09-23 06:04:00,44.3,43.2,29.90,NNE,26,1.0,2.0,96,0.00,,,0.00,Wunderground v.1.15,2013-09-23 10:04:00,
2013-09-23 06:10:00,44.3,43.0,29.90,NE,56,1.0,1.0,95,0.00,,,0.00,Wunderground v.1.15,2013-09-23 10:10:00,
2013-09-23 06:15:00,43.9,42.6,29.90,ENE,57,0.0,2.0,95,0.00,,,0.00,Wunderground v.1.15,2013-09-23 10:15:00,
2013-09-23 06:21:00,43.6,42.3,29.91,SE,131,0.0,2.0,95,0.00,,,0.00,Wunderground v.1.15,2013-09-23 10:21:00,
2013-09-23 06:27:00,43.1,41.8,29.91,SE,131,0.0,2.0,95,0.00,,,0.00,Wunderground v.1.15,2013-09-23 10:27:00,
2013-09-23 06:33:00,42.6,41.3,29.91,SE,131,0.0,2.0,95,0.00,,,0.00,Wunderground v.1.15,2013-09-23 10:33:00,
2013-09-23 06:39:00,42.3,41.0,29.92,SE,140,0.0,2.0,95,0.00,,,0.00,Wunderground v.1.15,2013-09-23 10:39:00,
2013-09-23 06:45:00,42.1,40.8,29.92,SE,140,0.0,2.0,95,0.00,,,0.00,Wunderground v.1.15,2013-09-23 10:45:00,
2013-09-23 06:50:00,42.0,40.7,29.92,SE,139,0.0,2.0,95,0.00,,,0.00,Wunderground v.1.15,2013-09-23 10:50:00,
2013-09-23 06:56:00,41.9,40.8,29.92,SE,140,0.0,2.0,96,0.00,,,0.00,Wunderground v.1.15,2013-09-23 10:56:00,
2013-09-23 07:02:00,41.6,40.3,29.92,SE,139,0.0,2.0,95,0.00,,,0.00,Wunderground v.1.15,2013-09-23 11:02:00,
2013-09-23 07:07:00,41.3,40.2,29.93,SE,139,0.0,2.0,96,0.00,,,0.00,Wunderground v.1.15,2013-09-23 11:07:00,
2013-09-23 07:13:00,41.4,40.3,29.93,SE,139,0.0,2.0,96,0.00,,,0.00,Wunderground v.1.15,2013-09-23 11:13:00,
2013-09-23 07:19:00,41.4,40.3,29.93,SE,140,0.0,2.0,96,0.00,,,0.00,Wunderground v.1.15,2013-09-23 11:19:00,
2013-09-23 07:24:00,41.9,41.1,29.93,ENE,66,0.0,2.0,97,0.00,,,0.00,Wunderground v.1.15,2013-09-23 11:24:00,
2013-09-23 07:30:00,42.8,42.0,29.93,NE,56,0.0,2.0,97,0.00,,,0.00,Wunderground v.1.15,2013-09-23 11:30:00,
2013-09-23 08:41:00,51.0,46.3,29.94,WSW,245,3.0,3.0,84,0.00,,,0.00,Wunderground v.1.15,2013-09-23 12:41:00,
2013-09-23 08:46:00,51.7,47.3,29.94,ENE,63,2.0,4.0,85,0.00,,,0.00,Wunderground v.1.15,2013-09-23 12:46:00,
2013-09-23 08:51:00,52.0,46.3,29.94,NNW,328,1.0,1.0,81,0.00,,,0.00,Wunderground v.1.15,2013-09-23 12:51:00,
2013-09-23 08:57:00,52.2,46.2,29.94,NNW,334,2.0,4.0,80,0.00,,,0.00,Wunderground v.1.15,2013-09-23 12:57:00,
2013-09-23 09:03:00,52.6,46.6,29.94,North,360,2.0,4.0,80,0.00,,,0.00,Wunderground v.1.15,2013-09-23 13:03:00,
2013-09-23 09:09:00,52.8,46.5,29.94,NE,46,2.0,7.0,79,0.00,,,0.00,Wunderground v.1.15,2013-09-23 13:09:00,
2013-09-23 09:15:00,53.3,47.3,29.94,NW,307,3.0,5.0,80,0.00,,,0.00,Wunderground v.1.15,2013-09-23 13:15:00,
2013-09-23 09:20:00,53.5,46.5,29.93,WNW,290,3.0,3.0,77,0.00,,,0.00,Wunderground v.1.15,2013-09-23 13:20:00,
2013-09-23 09:25:00,53.5,45.8,29.93,NE,43,4.0,6.0,75,0.00,,,0.00,Wunderground v.1.15,2013-09-23 13:25:00,
2013-09-23 09:30:00,53.7,46.3,29.93,NNE,13,5.0,5.0,76,0.00,,,0.00,Wunderground v.1.15,2013-09-23 13:30:00,
2013-09-23 09:35:00,53.8,45.7,29.93,NNW,342,4.0,6.0,74,0.00,,,0.00,Wunderground v.1.15,2013-09-23 13:35:00,
2013-09-23 09:40:00,54.0,45.9,29.93,ENE,64,5.0,5.0,74,0.00,,,0.00,Wunderground v.1.15,2013-09-23 13:40:00,
2013-09-23 09:46:00,54.2,46.1,29.93,North,356,5.0,10.0,74,0.00,,,0.00,Wunderground v.1.15,2013-09-23 13:46:00,
2013-09-23 09:51:00,54.6,45.8,29.93,ENE,70,5.0,8.0,72,0.00,,,0.00,Wunderground v.1.15,2013-09-23 13:51:00,
2013-09-23 09:56:00,55.2,46.7,29.93,NNE,20,3.0,8.0,73,0.00,,,0.00,Wunderground v.1.15,2013-09-23 13:56:00,
2013-09-23 10:01:00,55.5,46.6,29.93,NNE,22,3.0,8.0,72,0.00,,,0.00,Wunderground v.1.15,2013-09-23 14:01:00,
2013-09-23 10:06:00,55.8,45.8,29.93,NNW,347,3.0,8.0,69,0.00,,,0.00,Wunderground v.1.15,2013-09-23 14:06:00,
2013-09-23 10:11:00,55.8,45.8,29.93,NNE,13,4.0,9.0,69,0.00,,,0.00,Wunderground v.1.15,2013-09-23 14:11:00,
2013-09-23 10:16:00,55.9,46.6,29.93,NNE,23,4.0,9.0,71,0.00,,,0.00,Wunderground v.1.15,2013-09-23 14:16:00,
2013-09-23 10:22:00,56.0,46.0,29.93,NNE,25,4.0,8.0,69,0.00,,,0.00,Wunderground v.1.15,2013-09-23 14:22:00,
2013-09-23 10:28:00,56.1,47.2,29.93,South,183,5.0,9.0,72,0.00,,,0.00,Wunderground v.1.15,2013-09-23 14:28:00,
2013-09-23 10:33:00,56.9,47.2,29.93,West,270,4.0,8.0,70,0.00,,,0.00,Wunderground v.1.15,2013-09-23 14:33:00,
2013-09-23 10:38:00,56.9,46.4,29.93,WNW,284,3.0,8.0,68,0.00,,,0.00,Wunderground v.1.15,2013-09-23 14:38:00,
2013-09-23 10:44:00,57.2,46.7,29.93,SW,225,3.0,8.0,68,0.00,,,0.00,Wunderground v.1.15,2013-09-23 14:44:00,
2013-09-23 10:49:00,57.2,45.9,29.93,North,356,3.0,8.0,66,0.00,,,0.00,Wunderground v.1.15,2013-09-23 14:49:00,
2013-09-23 10:55:00,57.4,46.9,29.93,NE,56,3.0,8.0,68,0.00,,,0.00,Wunderground v.1.15,2013-09-23 14:55:00,
2013-09-23 11:00:00,57.9,47.0,29.93,NNW,337,3.0,8.0,67,0.00,,,0.00,Wunderground v.1.15,2013-09-23 15:00:00,
2013-09-23 11:05:00,58.5,48.0,29.92,NNE,18,3.0,8.0,68,0.00,,,0.00,Wunderground v.1.15,2013-09-23 15:05:00,
2013-09-23 11:11:00,58.4,45.8,29.93,NNW,342,4.0,8.0,63,0.00,,,0.00,Wunderground v.1.15,2013-09-23 15:11:00,
2013-09-23 11:17:00,58.2,45.7,29.93,NE,46,4.0,8.0,63,0.00,,,0.00,Wunderground v.1.15,2013-09-23 15:17:00,
2013-09-23 11:22:00,58.5,47.2,29.93,NE,39,4.0,5.0,66,0.00,,,0.00,Wunderground v.1.15,2013-09-23 15:22:00,
2013-09-23 11:27:00,58.6,45.6,29.92,WNW,295,4.0,6.0,62,0.00,,,0.00,Wunderground v.1.15,2013-09-23 15:27:00,
2013-09-23 11:33:00,58.7,45.7,29.92,NNW,342,4.0,4.0,62,0.00,,,0.00,Wunderground v.1.15,2013-09-23 15:33:00,
2013-09-23 11:39:00,59.3,47.1,29.92,NNE,16,3.0,6.0,64,0.00,,,0.00,Wunderground v.1.15,2013-09-23 15:39:00,
2013-09-23 11:44:00,59.6,47.4,29.92,NNW,330,3.0,4.0,64,0.00,,,0.00,Wunderground v.1.15,2013-09-23 15:44:00,
2013-09-23 11:49:00,59.7,47.1,29.92,NNE,19,3.0,4.0,63,0.00,,,0.00,Wunderground v.1.15,2013-09-23 15:49:00,
2013-09-23 11:55:00,59.7,46.2,29.92,ENE,75,3.0,5.0,61,0.00,,,0.00,Wunderground v.1.15,2013-09-23 15:55:00,
2013-09-23 12:00:00,59.9,46.8,29.92,NNE,19,3.0,3.0,62,0.00,,,0.00,Wunderground v.1.15,2013-09-23 16:00:00,
2013-09-23 12:06:00,60.1,46.6,29.92,NNW,345,4.0,8.0,61,0.00,,,0.00,Wunderground v.1.15,2013-09-23 16:06:00,
2013-09-23 12:12:00,59.9,46.8,29.92,NNE,28,4.0,8.0,62,0.00,,,0.00,Wunderground v.1.15,2013-09-23 16:12:00,
2013-09-23 12:17:00,60.5,47.4,29.92,WNW,297,3.0,8.0,62,0.00,,,0.00,Wunderground v.1.15,2013-09-23 16:17:00,
2013-09-23 12:23:00,60.7,47.6,29.92,NE,45,3.0,8.0,62,0.00,,,0.00,Wunderground v.1.15,2013-09-23 16:23:00,
2013-09-23 12:28:00,60.8,47.3,29.91,NNE,24,3.0,8.0,61,0.00,,,0.00,Wunderground v.1.15,2013-09-23 16:28:00,
2013-09-23 12:34:00,60.8,46.4,29.92,West,263,4.0,8.0,59,0.00,,,0.00,Wunderground v.1.15,2013-09-23 16:34:00,
2013-09-23 12:39:00,60.9,47.8,29.92,SW,226,4.0,8.0,62,0.00,,,0.00,Wunderground v.1.15,2013-09-23 16:39:00,
2013-09-23 12:45:00,61.0,47.4,29.91,WNW,297,3.0,8.0,61,0.00,,,0.00,Wunderground v.1.15,2013-09-23 16:45:00,
2013-09-23 12:51:00,62.0,48.0,29.91,WNW,287,2.0,4.0,60,0.00,,,0.00,Wunderground v.1.15,2013-09-23 16:51:00,
2013-09-23 12:57:00,62.0,47.0,29.92,WSW,250,3.0,8.0,58,0.00,,,0.00,Wunderground v.1.15,2013-09-23 16:57:00,
2013-09-23 13:03:00,61.8,46.9,29.91,SW,214,3.0,8.0,58,0.00,,,0.00,Wunderground v.1.15,2013-09-23 17:03:00,
2013-09-23 13:09:00,62.1,48.5,29.91,NNW,344,3.0,8.0,61,0.00,,,0.00,Wunderground v.1.15,2013-09-23 17:09:00,
2013-09-23 13:14:00,62.1,47.1,29.91,NW,326,3.0,8.0,58,0.00,,,0.00,Wunderground v.1.15,2013-09-23 17:14:00,
2013-09-23 13:20:00,62.2,47.7,29.91,West,271,3.0,3.0,59,0.00,,,0.00,Wunderground v.1.15,2013-09-23 17:20:00,
2013-09-23 13:25:00,62.3,47.3,29.91,WNW,284,3.0,8.0,58,0.00,,,0.00,Wunderground v.1.15,2013-09-23 17:25:00,
2013-09-23 13:31:00,62.6,48.5,29.91,NNE,12,3.0,8.0,60,0.00,,,0.00,Wunderground v.1.15,2013-09-23 17:31:00,
2013-09-23 13:37:00,62.8,47.8,29.91,WSW,245,3.0,8.0,58,0.00,,,0.00,Wunderground v.1.15,2013-09-23 17:37:00,
2013-09-23 13:43:00,62.6,48.5,29.91,SW,215,4.0,8.0,60,0.00,,,0.00,Wunderground v.1.15,2013-09-23 17:43:00,
2013-09-23 13:49:00,63.0,48.4,29.91,NE,56,3.0,8.0,59,0.00,,,0.00,Wunderground v.1.15,2013-09-23 17:49:00,
2013-09-23 13:54:00,63.0,48.4,29.91,WNW,283,4.0,8.0,59,0.00,,,0.00,Wunderground v.1.15,2013-09-23 17:54:00,
2013-09-23 13:59:00,63.0,47.5,29.91,SW,215,4.0,8.0,57,0.00,,,0.00,Wunderground v.1.15,2013-09-23 17:59:00,
2013-09-23 14:04:00,63.3,48.7,29.91,NNE,28,3.0,8.0,59,0.00,,,0.00,Wunderground v.1.15,2013-09-23 18:04:00,
2013-09-23 14:10:00,62.8,47.8,29.90,NNW,328,5.0,5.0,58,0.00,,,0.00,Wunderground v.1.15,2013-09-23 18:10:00,
2013-09-23 14:15:00,63.3,48.7,29.90,NNE,26,4.0,8.0,59,0.00,,,0.00,Wunderground v.1.15,2013-09-23 18:15:00,
2013-09-23 14:20:00,63.5,48.9,29.90,WNW,291,3.0,8.0,59,0.00,,,0.00,Wunderground v.1.15,2013-09-23 18:20:00,
2013-09-23 14:25:00,63.6,48.5,29.90,NNW,339,3.0,9.0,58,0.00,,,0.00,Wunderground v.1.15,2013-09-23 18:25:00,
2013-09-23 14:31:00,63.4,47.9,29.90,NW,322,4.0,8.0,57,0.00,,,0.00,Wunderground v.1.15,2013-09-23 18:31:00,
2013-09-23 14:37:00,63.9,49.7,29.90,NNE,33,3.0,8.0,60,0.00,,,0.00,Wunderground v.1.15,2013-09-23 18:37:00,
2013-09-23 14:43:00,63.6,49.0,29.90,NE,36,3.0,9.0,59,0.00,,,0.00,Wunderground v.1.15,2013-09-23 18:43:00,
2013-09-23 14:49:00,63.4,47.9,29.90,NE,47,5.0,9.0,57,0.00,,,0.00,Wunderground v.1.15,2013-09-23 18:49:00,
2013-09-23 14:55:00,63.8,50.5,29.89,SW,232,4.0,8.0,62,0.00,,,0.00,Wunderground v.1.15,2013-09-23 18:55:00,
2013-09-23 15:01:00,64.6,49.0,29.89,WNW,297,2.0,8.0,57,0.00,,,0.00,Wunderground v.1.15,2013-09-23 19:01:00,
2013-09-23 15:07:00,64.5,48.4,29.89,ENE,70,3.0,9.0,56,0.00,,,0.00,Wunderground v.1.15,2013-09-23 19:07:00,
2013-09-23 15:13:00,64.7,50.0,29.89,WNW,288,3.0,8.0,59,0.00,,,0.00,Wunderground v.1.15,2013-09-23 19:13:00,
2013-09-23 15:19:00,65.5,49.4,29.89,NE,37,2.0,10.0,56,0.00,,,0.00,Wunderground v.1.15,2013-09-23 19:19:00,
2013-09-23 15:25:00,64.7,48.6,29.89,West,263,3.0,8.0,56,0.00,,,0.00,Wunderground v.1.15,2013-09-23 19:25:00,
2013-09-23 15:31:00,64.4,48.4,29.89,NE,55,4.0,8.0,56,0.00,,,0.00,Wunderground v.1.15,2013-09-23 19:31:00,
2013-09-23 15:36:00,64.7,49.6,29.89,NE,50,3.0,8.0,58,0.00,,,0.00,Wunderground v.1.15,2013-09-23 19:36:00,
2013-09-23 15:42:00,64.7,48.6,29.89,NNE,26,3.0,8.0,56,0.00,,,0.00,Wunderground v.1.15,2013-09-23 19:42:00,
2013-09-23 15:48:00,64.5,48.9,29.89,NNW,338,4.0,8.0,57,0.00,,,0.00,Wunderground v.1.15,2013-09-23 19:48:00,
2013-09-23 15:53:00,64.9,48.8,29.89,WNW,282,3.0,8.0,56,0.00,,,0.00,Wunderground v.1.15,2013-09-23 19:53:00,
2013-09-23 15:59:00,65.1,49.5,29.89,NE,35,2.0,8.0,57,0.00,,,0.00,Wunderground v.1.15,2013-09-23 19:59:00,
2013-09-23 16:05:00,65.3,49.7,29.89,West,269,2.0,8.0,57,0.00,,,0.00,Wunderground v.1.15,2013-09-23 20:05:00,
2013-09-23 16:11:00,65.1,50.4,29.89,NNE,22,3.0,6.0,59,0.00,,,0.00,Wunderground v.1.15,2013-09-23 20:11:00,
2013-09-23 16:17:00,64.3,48.7,29.89,NNW,331,5.0,8.0,57,0.00,,,0.00,Wunderground v.1.15,2013-09-23 20:17:00,
2013-09-23 16:23:00,64.4,49.8,29.89,NNW,348,4.0,8.0,59,0.00,,,0.00,Wunderground v.1.15,2013-09-23 20:23:00,
2013-09-23 16:29:00,64.9,49.8,29.89,NE,41,2.0,8.0,58,0.00,,,0.00,Wunderground v.1.15,2013-09-23 20:29:00,
2013-09-23 16:35:00,65.0,50.3,29.89,West,266,2.0,8.0,59,0.00,,,0.00,Wunderground v.1.15,2013-09-23 20:35:00,
2013-09-23 16:41:00,64.3,49.2,29.89,ENE,76,3.0,8.0,58,0.00,,,0.00,Wunderground v.1.15,2013-09-23 20:41:00,
2013-09-23 16:47:00,63.8,48.7,29.89,North,4,4.0,10.0,58,0.00,,,0.00,Wunderground v.1.15,2013-09-23 20:47:00,
2013-09-23 16:53:00,63.7,49.1,29.89,North,358,4.0,8.0,59,0.00,,,0.00,Wunderground v.1.15,2013-09-23 20:53:00,
2013-09-23 16:58:00,63.7,49.5,29.90,NE,44,2.0,8.0,60,0.00,,,0.00,Wunderground v.1.15,2013-09-23 20:58:00,
2013-09-23 17:04:00,63.4,49.7,29.90,North,7,2.0,8.0,61,0.00,,,0.00,Wunderground v.1.15,2013-09-23 21:04:00,
2013-09-23 17:10:00,63.2,50.0,29.90,NNE,12,2.0,2.0,62,0.00,,,0.00,Wunderground v.1.15,2013-09-23 21:10:00,
2013-09-23 17:15:00,63.2,49.1,29.90,WNW,293,2.0,8.0,60,0.00,,,0.00,Wunderground v.1.15,2013-09-23 21:15:00,
2013-09-23 17:21:00,62.8,49.6,29.91,ENE,76,2.0,8.0,62,0.00,,,0.00,Wunderground v.1.15,2013-09-23 21:21:00,
2013-09-23 17:27:00,62.8,49.6,29.91,NW,316,1.0,8.0,62,0.00,,,0.00,Wunderground v.1.15,2013-09-23 21:27:00,
2013-09-23 17:33:00,62.5,49.3,29.91,WNW,287,2.0,8.0,62,0.00,,,0.00,Wunderground v.1.15,2013-09-23 21:33:00,
2013-09-23 17:39:00,62.5,49.7,29.91,West,281,2.0,8.0,63,0.00,,,0.00,Wunderground v.1.15,2013-09-23 21:39:00,
2013-09-23 17:45:00,62.1,49.4,29.91,NW,315,2.0,8.0,63,0.00,,,0.00,Wunderground v.1.15,2013-09-23 21:45:00,
2013-09-23 17:51:00,62.2,50.3,29.92,NW,316,1.0,8.0,65,0.00,,,0.00,Wunderground v.1.15,2013-09-23 21:51:00,
2013-09-23 17:56:00,61.7,50.2,29.92,NNW,340,0.0,8.0,66,0.00,,,0.00,Wunderground v.1.15,2013-09-23 21:56:00,
2013-09-23 18:02:00,60.9,49.9,29.92,NNW,339,0.0,8.0,67,0.00,,,0.00,Wunderground v.1.15,2013-09-23 22:02:00,
2013-09-23 18:08:00,60.1,50.7,29.92,NNE,18,1.0,8.0,71,0.00,,,0.00,Wunderground v.1.15,2013-09-23 22:08:00,
2013-09-23 18:14:00,59.3,50.6,29.92,North,8,1.0,8.0,73,0.00,,,0.00,Wunderground v.1.15,2013-09-23 22:14:00,
2013-09-23 18:20:00,57.9,51.4,29.92,North,8,0.0,8.0,79,0.00,,,0.00,Wunderground v.1.15,2013-09-23 22:20:00,
2013-09-23 18:26:00,56.5,51.4,29.93,North,8,0.0,8.0,83,0.00,,,0.00,Wunderground v.1.15,2013-09-23 22:26:00,
2013-09-23 18:32:00,55.7,51.3,29.93,North,9,0.0,8.0,85,0.00,,,0.00,Wunderground v.1.15,2013-09-23 22:32:00,
2013-09-23 18:37:00,55.0,51.2,29.93,North,8,0.0,8.0,87,0.00,,,0.00,Wunderground v.1.15,2013-09-23 22:37:00,
2013-09-23 18:43:00,54.5,51.0,29.93,North,9,0.0,8.0,88,0.00,,,0.00,Wunderground v.1.15,2013-09-23 22:43:00,
2013-09-23 18:48:00,54.0,50.8,29.94,North,8,0.0,8.0,89,0.00,,,0.00,Wunderground v.1.15,2013-09-23 22:48:00,
2013-09-23 18:54:00,53.5,50.6,29.94,North,9,0.0,8.0,90,0.00,,,0.00,Wunderground v.1.15,2013-09-23 22:54:00,
2013-09-23 19:00:00,52.9,50.0,29.94,North,9,0.0,8.0,90,0.00,,,0.00,Wunderground v.1.15,2013-09-23 23:00:00,
2013-09-23 19:06:00,52.4,49.6,29.94,North,9,0.0,8.0,90,0.00,,,0.00,Wunderground v.1.15,2013-09-23 23:06:00,
2013-09-23 19:12:00,51.9,49.4,29.94,North,9,0.0,8.0,91,0.00,,,0.00,Wunderground v.1.15,2013-09-23 23:12:00,
2013-09-23 19:17:00,51.7,49.5,29.94,North,8,0.0,8.0,92,0.00,,,0.00,Wunderground v.1.15,2013-09-23 23:17:00,
2013-09-23 19:23:00,51.6,49.6,29.95,North,9,0.0,8.0,93,0.00,,,0.00,Wunderground v.1.15,2013-09-23 23:23:00,
2013-09-23 19:28:00,51.5,49.5,29.95,North,9,0.0,8.0,93,0.00,,,0.00,Wunderground v.1.15,2013-09-23 23:28:00,
2013-09-23 19:33:00,51.2,49.2,29.95,North,9,0.0,8.0,93,0.00,,,0.00,Wunderground v.1.15,2013-09-23 23:33:00,
2013-09-23 19:39:00,50.9,49.2,29.95,North,8,0.0,8.0,94,0.00,,,0.00,Wunderground v.1.15,2013-09-23 23:39:00,
2013-09-23 19:45:00,50.6,48.9,29.95,North,9,0.0,8.0,94,0.00,,,0.00,Wunderground v.1.15,2013-09-23 23:45:00,
2013-09-23 19:51:00,50.3,48.6,29.96,North,9,0.0,8.0,94,0.00,,,0.00,Wunderground v.1.15,2013-09-23 23:51:00,
2013-09-23 19:57:00,50.1,48.4,29.96,North,9,0.0,8.0,94,0.00,,,0.00,Wunderground v.1.15,2013-09-23 23:57:00,
2013-09-23 20:03:00,49.6,47.9,29.96,North,8,0.0,8.0,94,0.00,,,0.00,Wunderground v.1.15,2013-09-24 00:03:00,
2013-09-23 20:10:00,49.4,48.0,29.96,North,8,0.0,8.0,95,0.00,,,0.00,Wunderground v.1.15,2013-09-24 00:10:00,
2013-09-23 20:15:00,49.2,47.8,29.96,North,9,0.0,8.0,95,0.00,,,0.00,Wunderground v.1.15,2013-09-24 00:15:00,
2013-09-23 20:21:00,49.0,47.6,29.97,North,9,0.0,8.0,95,0.00,,,0.00,Wunderground v.1.15,2013-09-24 00:21:00,
2013-09-23 20:27:00,48.9,47.5,29.96,North,9,0.0,8.0,95,0.00,,,0.00,Wunderground v.1.15,2013-09-24 00:27:00,
2013-09-23 20:33:00,48.6,47.2,29.97,North,9,0.0,8.0,95,0.00,,,0.00,Wunderground v.1.15,2013-09-24 00:33:00,
2013-09-23 20:39:00,48.4,47.0,29.97,North,9,0.0,8.0,95,0.00,,,0.00,Wunderground v.1.15,2013-09-24 00:39:00,
2013-09-23 20:45:00,48.2,46.8,29.97,North,8,0.0,8.0,95,0.00,,,0.00,Wunderground v.1.15,2013-09-24 00:45:00,
2013-09-23 20:51:00,47.9,46.5,29.97,North,8,0.0,8.0,95,0.00,,,0.00,Wunderground v.1.15,2013-09-24 00:51:00,
2013-09-23 20:57:00,47.7,46.6,29.98,North,9,0.0,8.0,96,0.00,,,0.00,Wunderground v.1.15,2013-09-24 00:57:00,
2013-09-23 21:02:00,47.6,46.5,29.98,North,9,0.0,8.0,96,0.00,,,0.00,Wunderground v.1.15,2013-09-24 01:02:00,
2013-09-23 21:08:00,47.4,46.3,29.98,North,9,0.0,8.0,96,0.00,,,0.00,Wunderground v.1.15,2013-09-24 01:08:00,
2013-09-23 21:14:00,47.3,46.2,29.98,North,9,0.0,8.0,96,0.00,,,0.00,Wunderground v.1.15,2013-09-24 01:14:00,
2013-09-23 21:20:00,47.2,46.1,29.98,North,9,0.0,8.0,96,0.00,,,0.00,Wunderground v.1.15,2013-09-24 01:20:00,
2013-09-23 21:26:00,47.1,46.0,29.98,North,9,0.0,8.0,96,0.00,,,0.00,Wunderground v.1.15,2013-09-24 01:26:00,
2013-09-23 21:32:00,46.8,45.7,29.98,North,9,0.0,8.0,96,0.00,,,0.00,Wunderground v.1.15,2013-09-24 01:32:00,
2013-09-23 21:37:00,46.6,45.5,29.98,North,9,0.0,8.0,96,0.00,,,0.00,Wunderground v.1.15,2013-09-24 01:37:00,
2013-09-23 21:42:00,46.3,45.2,29.98,North,9,0.0,8.0,96,0.00,,,0.00,Wunderground v.1.15,2013-09-24 01:42:00,
2013-09-23 21:47:00,46.1,45.0,29.98,North,8,0.0,8.0,96,0.00,,,0.00,Wunderground v.1.15,2013-09-24 01:47:00,
2013-09-23 21:53:00,46.1,45.0,29.99,North,11,0.0,8.0,96,0.00,,,0.00,Wunderground v.1.15,2013-09-24 01:53:00,
2013-09-23 21:59:00,46.3,45.5,29.99,North,11,0.0,8.0,97,0.00,,,0.00,Wunderground v.1.15,2013-09-24 01:59:00,
2013-09-23 22:05:00,46.5,45.7,29.99,NNE,22,0.0,8.0,97,0.00,,,0.00,Wunderground v.1.15,2013-09-24 02:05:00,
2013-09-23 22:10:00,46.5,45.7,29.99,NNE,22,1.0,1.0,97,0.00,,,0.00,Wunderground v.1.15,2013-09-24 02:10:00,
2013-09-23 22:15:00,46.3,45.2,29.99,NNE,22,0.0,8.0,96,0.00,,,0.00,Wunderground v.1.15,2013-09-24 02:15:00,
2013-09-23 22:22:00,45.9,44.8,29.99,NNE,22,0.0,8.0,96,0.00,,,0.00,Wunderground v.1.15,2013-09-24 02:22:00,
2013-09-23 22:28:00,45.6,44.5,29.99,NNE,23,0.0,8.0,96,0.00,,,0.00,Wunderground v.1.15,2013-09-24 02:28:00,
2013-09-23 22:34:00,45.2,44.1,29.99,NNE,22,0.0,8.0,96,0.00,,,0.00,Wunderground v.1.15,2013-09-24 02:34:00,
2013-09-23 22:40:00,44.8,43.7,29.99,NNE,22,0.0,8.0,96,0.00,,,0.00,Wunderground v.1.15,2013-09-24 02:40:00,
2013-09-23 22:45:00,44.7,43.6,30.00,NNE,22,0.0,8.0,96,0.00,,,0.00,Wunderground v.1.15,2013-09-24 02:45:00,
2013-09-23 22:51:00,44.6,43.8,30.00,NNE,22,0.0,8.0,97,0.00,,,0.00,Wunderground v.1.15,2013-09-24 02:51:00,
2013-09-23 22:58:00,44.3,43.2,30.00,NNE,22,0.0,8.0,96,0.00,,,0.00,Wunderground v.1.15,2013-09-24 02:58:00,
2013-09-23 23:03:00,44.3,43.5,30.00,NNE,22,0.0,8.0,97,0.00,,,0.00,Wunderground v.1.15,2013-09-24 03:03:00,
2013-09-23 23:08:00,44.1,43.3,30.00,NNE,22,0.0,8.0,97,0.00,,,0.00,Wunderground v.1.15,2013-09-24 03:08:00,
2013-09-23 23:14:00,43.9,42.8,30.00,NNE,22,0.0,0.0,96,0.00,,,0.00,Wunderground v.1.15,2013-09-24 03:14:00,
2013-09-23 23:19:00,43.9,43.1,30.00,NNE,22,0.0,0.0,97,0.00,,,0.00,Wunderground v.1.15,2013-09-24 03:19:00,
2013-09-23 23:24:00,43.7,42.9,30.00,NNE,22,0.0,0.0,97,0.00,,,0.00,Wunderground v.1.15,2013-09-24 03:24:00,
2013-09-23 23:30:00,43.5,42.7,30.00,NNE,22,0.0,0.0,97,0.00,,,0.00,Wunderground v.1.15,2013-09-24 03:30:00,
2013-09-23 23:36:00,43.4,42.6,30.00,NNE,23,0.0,0.0,97,0.00,,,0.00,Wunderground v.1.15,2013-09-24 03:36:00,
2013-09-23 23:42:00,43.0,41.9,30.01,NNE,22,0.0,0.0,96,0.00,,,0.00,Wunderground v.1.15,2013-09-24 03:42:00,
2013-09-23 23:48:00,42.4,41.3,30.01,NNE,22,0.0,0.0,96,0.00,,,0.00,Wunderground v.1.15,2013-09-24 03:48:00,
2013-09-23 23:54:00,42.5,41.7,30.00,NNE,22,0.0,0.0,97,0.00,,,0.00,Wunderground v.1.15,2013-09-24 03:54:00,